createdAt,value
2023-02-06T00:01:09.312Z,2.00
2023-02-06T00:04:21.345Z,1.73
2023-02-06T00:07:21.257Z,2.27
2023-02-06T00:10:47.304Z,1.63
2023-02-06T00:13:59.275Z,1.83
2023-02-06T00:17:12.269Z,1.67
2023-02-06T00:20:12.328Z,2.45
2023-02-06T00:23:24.309Z,2.05
2023-02-06T00:26:37.353Z,2.17
2023-02-06T00:29:49.388Z,2.10
2023-02-06T00:33:01.354Z,1.90
2023-02-06T00:36:25.339Z,2.45
2023-02-06T00:39:25.396Z,2.07
2023-02-06T00:42:54.360Z,2.20
2023-02-06T00:45:54.399Z,1.70
2023-02-06T00:49:06.466Z,1.53
2023-02-06T00:52:18.431Z,2.37
2023-02-06T00:55:43.406Z,1.50
2023-02-06T00:58:57.485Z,1.80
2023-02-06T01:02:09.470Z,1.57
2023-02-06T01:05:09.459Z,1.83
2023-02-06T01:08:21.457Z,1.60
2023-02-06T01:11:36.467Z,1.83
2023-02-06T01:15:02.482Z,1.90
2023-02-06T01:18:02.547Z,1.40
2023-02-06T01:21:33.476Z,1.90
2023-02-06T01:24:33.519Z,1.60
2023-02-06T01:27:57.601Z,2.07
2023-02-06T01:31:11.517Z,1.80
2023-02-06T01:34:23.561Z,1.57
2023-02-06T01:37:23.607Z,1.70
2023-02-06T01:40:35.621Z,1.60
2023-02-06T01:43:47.564Z,1.80
2023-02-06T01:47:13.592Z,1.70
2023-02-06T01:50:13.566Z,1.40
2023-02-06T01:53:37.705Z,2.27
2023-02-06T01:56:49.593Z,1.40
2023-02-06T02:00:13.587Z,1.43
2023-02-06T02:03:39.620Z,1.80
2023-02-06T02:06:51.648Z,1.90
2023-02-06T02:10:03.679Z,1.20
2023-02-06T02:13:03.634Z,1.40
2023-02-06T02:16:27.721Z,1.67
2023-02-06T02:20:06.765Z,1.45
2023-02-06T02:23:22.740Z,2.10
2023-02-06T02:27:01.751Z,1.90
2023-02-06T02:30:22.740Z,1.60
2023-02-06T02:34:02.759Z,1.63
2023-02-06T02:37:16.705Z,1.80
2023-02-06T02:40:42.771Z,2.15
2023-02-06T02:44:07.802Z,1.33
2023-02-06T02:47:34.823Z,1.33
2023-02-06T02:50:58.816Z,1.63
2023-02-06T02:54:23.805Z,1.60
2023-02-06T02:57:47.733Z,1.77
2023-02-06T03:01:12.862Z,1.95
2023-02-06T03:04:24.849Z,1.90
2023-02-06T03:07:49.869Z,1.60
2023-02-06T03:11:17.872Z,1.30
2023-02-06T03:14:41.817Z,1.37
2023-02-06T03:17:54.874Z,1.20
2023-02-06T03:21:07.858Z,1.63
2023-02-06T03:24:19.858Z,0.93
2023-02-06T03:27:45.910Z,1.35
2023-02-06T03:30:57.966Z,1.90
2023-02-06T03:34:22.943Z,1.50
2023-02-06T03:37:34.929Z,1.40
2023-02-06T03:40:58.982Z,1.50
2023-02-06T03:44:11.930Z,1.23
2023-02-06T03:47:35.990Z,1.90
2023-02-06T03:50:47.995Z,1.80
2023-02-06T03:54:12.040Z,1.55
2023-02-06T03:57:24.018Z,1.90
2023-02-06T04:00:50.005Z,2.13
2023-02-06T04:04:13.161Z,1.43
2023-02-06T04:07:37.101Z,1.85
2023-02-06T04:10:49.059Z,0.90
2023-02-06T04:14:01.042Z,1.40
2023-02-06T04:17:23.786Z,1.50
2023-02-06T04:20:31.065Z,1.33
2023-02-06T04:23:43.094Z,1.47
2023-02-06T04:26:56.250Z,1.03
2023-02-06T04:29:56.080Z,1.40
2023-02-06T04:33:22.160Z,1.40
2023-02-06T04:36:34.056Z,1.30
2023-02-06T04:39:53.157Z,1.40
2023-02-06T04:42:53.107Z,1.90
2023-02-06T04:46:05.162Z,1.53
2023-02-06T04:49:19.145Z,1.37
2023-02-06T04:52:31.142Z,1.30
2023-02-06T04:55:32.193Z,1.50
2023-02-06T04:58:44.168Z,1.30
2023-02-06T05:01:44.241Z,1.60
2023-02-06T05:05:10.261Z,1.40
2023-02-06T05:08:10.205Z,2.03
2023-02-06T05:11:22.223Z,2.03
2023-02-06T05:14:22.232Z,1.50
2023-02-06T05:17:35.313Z,1.43
2023-02-06T05:20:48.191Z,1.80
2023-02-06T05:24:13.301Z,1.70
2023-02-06T05:27:13.286Z,1.40
2023-02-06T05:30:38.291Z,1.13
2023-02-06T05:33:52.219Z,1.47
2023-02-06T05:37:15.302Z,1.33
2023-02-06T05:40:27.315Z,1.65
2023-02-06T05:43:39.512Z,1.30
2023-02-06T05:46:39.331Z,1.27
2023-02-06T05:49:52.399Z,1.70
2023-02-06T05:53:06.330Z,1.20
2023-02-06T05:56:20.406Z,1.40
2023-02-06T05:59:21.398Z,1.50
2023-02-06T06:02:33.428Z,2.05
2023-02-06T06:05:45.509Z,1.47
2023-02-06T06:08:59.389Z,1.13
2023-02-06T06:12:11.395Z,1.50
2023-02-06T06:15:11.452Z,1.20
2023-02-06T06:18:35.423Z,1.20
2023-02-06T06:21:47.496Z,1.47
2023-02-06T06:25:13.429Z,1.00
2023-02-06T06:28:13.540Z,1.40
2023-02-06T06:31:37.607Z,1.20
2023-02-06T06:34:49.507Z,1.47
2023-02-06T06:38:02.504Z,1.15
2023-02-06T06:41:16.452Z,1.60
2023-02-06T06:44:28.572Z,1.20
2023-02-06T06:47:28.522Z,1.47
2023-02-06T06:54:08.588Z,1.57
2023-02-06T06:57:35.596Z,1.60
2023-02-06T07:00:35.558Z,1.00
2023-02-06T07:03:49.615Z,1.40
2023-02-06T07:06:49.848Z,1.40
2023-02-06T07:10:01.608Z,1.30
2023-02-06T07:13:15.636Z,1.45
2023-02-06T07:16:28.752Z,1.50
2023-02-06T07:19:29.633Z,1.37
2023-02-06T07:22:42.661Z,0.90
2023-02-06T07:25:42.673Z,1.20
2023-02-06T07:29:09.629Z,1.47
2023-02-06T07:32:21.624Z,1.47
2023-02-06T07:35:33.970Z,1.17
2023-02-06T07:38:45.744Z,1.15
2023-02-06T07:41:58.722Z,1.87
2023-02-06T07:45:25.723Z,1.57
2023-02-06T07:48:38.937Z,1.63
2023-02-06T07:51:38.681Z,1.40
2023-02-06T07:54:51.804Z,2.17
2023-02-06T07:58:15.760Z,1.40
2023-02-06T08:01:45.038Z,0.90
2023-02-06T08:04:59.765Z,1.47
2023-02-06T08:08:04.828Z,2.00
2023-02-06T08:11:31.790Z,1.60
2023-02-06T08:14:31.793Z,1.30
2023-02-06T08:17:57.863Z,1.20
2023-02-06T08:20:57.960Z,1.43
2023-02-06T08:24:22.801Z,1.07
2023-02-06T08:27:22.778Z,1.90
2023-02-06T08:30:46.878Z,1.30
2023-02-06T08:34:00.903Z,2.73
2023-02-06T08:37:13.013Z,1.10
2023-02-06T08:40:12.849Z,1.43
2023-02-06T08:43:24.911Z,2.35
2023-02-06T08:46:24.996Z,1.55
2023-02-06T08:52:50.904Z,1.40
2023-02-06T08:56:15.898Z,2.40
2023-02-06T08:59:27.876Z,1.85
2023-02-06T09:02:39.957Z,2.35
2023-02-06T09:05:54.134Z,2.03
2023-02-06T09:09:05.949Z,2.60
2023-02-06T09:12:07.032Z,2.23
2023-02-06T09:15:32.079Z,1.90
2023-02-06T09:18:32.032Z,2.00
2023-02-06T09:22:07.078Z,1.47
2023-02-06T09:25:05.059Z,3.25
2023-02-06T09:28:20.079Z,2.57
2023-02-06T09:31:32.275Z,1.50
2023-02-06T09:34:45.015Z,2.20
2023-02-06T09:37:59.100Z,2.10
2023-02-06T09:41:23.032Z,1.73
2023-02-06T09:44:37.109Z,2.63
2023-02-06T09:48:01.084Z,1.57
2023-02-06T09:51:13.032Z,2.43
2023-02-06T09:54:41.081Z,2.03
2023-02-06T10:01:00.130Z,2.50
2023-02-06T10:04:35.084Z,2.00
2023-02-06T10:07:49.126Z,2.00
2023-02-06T10:11:15.197Z,2.40
2023-02-06T10:14:27.141Z,2.10
2023-02-06T10:17:51.155Z,1.33
2023-02-06T10:21:03.166Z,2.50
2023-02-06T10:24:27.222Z,1.80
2023-02-06T10:27:52.281Z,1.90
2023-02-06T10:31:24.487Z,1.60
2023-02-06T10:34:47.267Z,2.70
2023-02-06T10:38:18.225Z,2.40
2023-02-06T10:41:31.201Z,2.25
2023-02-06T10:45:06.610Z,2.23
2023-02-06T10:48:09.269Z,3.50
2023-02-06T10:51:35.352Z,2.23
2023-02-06T10:54:47.253Z,3.93
2023-02-06T10:58:11.286Z,2.37
2023-02-06T11:01:26.817Z,2.70
2023-02-06T11:04:49.319Z,2.70
2023-02-06T11:08:01.333Z,2.85
2023-02-06T11:11:28.365Z,5.40
2023-02-06T11:14:40.336Z,2.15
2023-02-06T11:18:06.370Z,2.40
2023-02-06T11:21:18.364Z,3.20
2023-02-06T11:24:42.445Z,2.47
2023-02-06T11:27:54.520Z,1.77
2023-02-06T11:31:19.448Z,2.50
2023-02-06T11:34:33.440Z,2.30
2023-02-06T11:37:58.409Z,1.77
2023-02-06T11:41:16.471Z,2.30
2023-02-06T11:44:28.419Z,2.13
2023-02-06T11:47:50.461Z,2.60
2023-02-06T11:51:18.503Z,1.97
2023-02-06T11:54:18.469Z,2.73
2023-02-06T11:57:44.491Z,2.97
2023-02-06T12:00:56.470Z,2.37
2023-02-06T12:04:21.689Z,2.33
2023-02-06T12:07:37.531Z,3.25
2023-02-06T12:11:01.473Z,2.65
2023-02-06T12:14:13.616Z,2.20
2023-02-06T12:17:39.516Z,2.33
2023-02-06T12:20:51.574Z,2.20
2023-02-06T12:24:17.538Z,3.20
2023-02-06T12:27:29.601Z,2.33
2023-02-06T12:30:54.682Z,2.20
2023-02-06T12:34:07.626Z,2.77
2023-02-06T12:37:32.592Z,2.75
2023-02-06T12:40:46.682Z,2.90
2023-02-06T12:44:10.649Z,3.20
2023-02-06T12:47:22.600Z,2.73
2023-02-06T12:50:46.649Z,2.80
2023-02-06T12:53:58.697Z,1.83
2023-02-06T12:57:24.796Z,2.77
2023-02-06T13:00:47.656Z,3.40
2023-02-06T13:04:13.640Z,2.30
2023-02-06T13:07:27.742Z,2.35
2023-02-06T13:10:51.674Z,2.53
2023-02-06T13:14:05.737Z,2.27
2023-02-06T13:17:30.792Z,3.15
2023-02-06T13:20:42.715Z,2.30
2023-02-06T13:24:12.802Z,1.90
2023-02-06T13:27:28.855Z,2.53
2023-02-06T13:31:12.875Z,2.60
2023-02-06T13:34:25.806Z,2.53
2023-02-06T13:37:52.774Z,2.00
2023-02-06T13:40:52.781Z,2.73
2023-02-06T13:44:20.817Z,3.40
2023-02-06T13:47:39.807Z,1.80
2023-02-06T13:51:06.848Z,2.23
2023-02-06T13:54:24.822Z,1.70
2023-02-06T13:57:53.798Z,1.70
2023-02-06T14:01:07.901Z,2.10
2023-02-06T14:04:33.851Z,2.53
2023-02-06T14:07:54.950Z,2.47
2023-02-06T14:11:21.915Z,1.63
2023-02-06T14:14:37.073Z,2.17
2023-02-06T14:18:11.966Z,3.63
2023-02-06T14:21:26.906Z,1.90
2023-02-06T14:24:57.968Z,1.70
2023-02-06T14:28:18.941Z,1.50
2023-02-06T14:31:46.591Z,1.90
2023-02-06T14:34:59.932Z,1.70
2023-02-06T14:38:28.930Z,2.20
2023-02-06T14:41:40.997Z,1.65
2023-02-06T14:45:08.076Z,1.83
2023-02-06T14:48:20.032Z,2.43
2023-02-06T14:51:45.038Z,1.75
2023-02-06T14:54:59.065Z,1.97
2023-02-06T14:58:23.061Z,1.90
2023-02-06T15:01:39.008Z,1.67
2023-02-06T15:05:09.057Z,1.70
2023-02-06T15:08:22.117Z,1.75
2023-02-06T15:11:49.062Z,1.40
2023-02-06T15:15:01.101Z,1.40
2023-02-06T15:18:25.077Z,1.10
2023-02-06T15:21:38.293Z,1.60
2023-02-06T15:25:06.108Z,1.75
2023-02-06T15:28:22.193Z,2.10
2023-02-06T15:31:46.226Z,1.80
2023-02-06T15:34:58.197Z,2.17
2023-02-06T15:38:22.154Z,2.45
2023-02-06T15:41:46.241Z,2.10
2023-02-06T15:45:13.225Z,1.87
2023-02-06T15:48:25.214Z,2.10
2023-02-06T15:51:49.194Z,2.20
2023-02-06T15:55:01.213Z,2.47
2023-02-06T15:58:25.208Z,1.85
2023-02-06T16:01:39.244Z,1.90
2023-02-06T16:05:03.203Z,1.80
2023-02-06T16:08:03.375Z,1.90
2023-02-06T16:11:29.310Z,2.20
2023-02-06T16:14:45.281Z,1.47
2023-02-06T16:18:12.255Z,1.97
2023-02-06T16:21:37.356Z,1.90
2023-02-06T16:25:01.267Z,2.30
2023-02-06T16:28:13.441Z,1.50
2023-02-06T16:31:37.427Z,1.00
2023-02-06T16:34:56.591Z,1.20
2023-02-06T16:38:08.312Z,1.37
2023-02-06T16:41:08.360Z,1.40
2023-02-06T16:44:44.330Z,1.40
2023-02-06T16:47:35.369Z,1.60
2023-02-06T16:51:01.414Z,1.17
2023-02-06T16:54:13.440Z,0.90
2023-02-06T16:57:38.391Z,1.33
2023-02-06T17:00:50.500Z,1.27
2023-02-06T17:04:14.464Z,1.10
2023-02-06T17:07:28.436Z,1.10
2023-02-06T17:10:40.404Z,1.30
2023-02-06T17:13:40.495Z,1.30
2023-02-06T17:16:54.437Z,1.30
2023-02-06T17:20:06.464Z,1.20
2023-02-06T17:23:32.463Z,1.25
2023-02-06T17:26:44.559Z,1.83
2023-02-06T17:30:08.495Z,1.15
2023-02-06T17:33:09.524Z,1.13
2023-02-06T17:36:34.561Z,1.15
2023-02-06T17:39:48.574Z,1.03
2023-02-06T17:43:12.483Z,1.30
2023-02-06T17:46:12.613Z,1.13
2023-02-06T17:49:24.613Z,1.60
2023-02-06T17:52:36.529Z,1.40
2023-02-06T17:56:03.555Z,1.20
2023-02-06T17:59:03.711Z,1.70
2023-02-06T18:02:15.616Z,1.57
2023-02-06T18:05:27.677Z,1.40
2023-02-06T18:08:28.597Z,1.63
2023-02-06T18:11:54.577Z,1.73
2023-02-06T18:15:06.622Z,2.07
2023-02-06T18:18:30.676Z,1.80
2023-02-06T18:21:42.679Z,2.33
2023-02-06T18:25:07.675Z,2.40
2023-02-06T18:28:20.770Z,2.10
2023-02-06T18:31:45.797Z,1.97
2023-02-06T18:34:57.739Z,1.97
2023-02-06T18:38:10.997Z,1.50
2023-02-06T18:41:28.732Z,2.25
2023-02-06T18:44:54.705Z,1.57
2023-02-06T18:47:55.766Z,1.77
2023-02-06T18:51:07.878Z,2.40
2023-02-06T18:54:20.718Z,2.10
2023-02-06T18:57:32.797Z,2.33
2023-02-06T19:00:46.767Z,2.05
2023-02-06T19:03:58.758Z,2.50
2023-02-06T19:07:10.834Z,2.60
2023-02-06T19:10:34.932Z,2.27
2023-02-06T19:13:34.867Z,1.85
2023-02-06T19:17:00.824Z,2.10
2023-02-06T19:20:12.911Z,2.70
2023-02-06T19:23:24.947Z,2.45
2023-02-06T19:26:39.925Z,3.20
2023-02-06T19:29:52.923Z,2.50
2023-02-06T19:33:05.879Z,2.67
2023-02-06T19:36:30.851Z,2.90
2023-02-06T19:39:42.903Z,3.20
2023-02-06T19:42:54.880Z,3.27
2023-02-06T19:45:55.056Z,3.17
2023-02-06T19:49:19.902Z,3.10
2023-02-06T19:52:19.972Z,3.60
2023-02-06T19:55:32.972Z,3.43
2023-02-06T19:58:32.924Z,3.07
2023-02-06T20:01:56.940Z,3.27
2023-02-06T20:05:23.009Z,2.75
2023-02-06T20:08:23.026Z,3.10
2023-02-06T20:11:35.973Z,3.03
2023-02-06T20:14:47.967Z,3.50
2023-02-06T20:18:03.002Z,2.77
2023-02-06T20:21:17.022Z,3.45
2023-02-06T20:24:41.097Z,3.07
2023-02-06T20:27:40.996Z,2.80
2023-02-06T20:31:05.111Z,3.50
2023-02-06T20:34:17.131Z,3.67
2023-02-06T20:37:43.111Z,3.40
2023-02-06T20:40:43.049Z,3.15
2023-02-06T20:43:55.056Z,3.70
2023-02-06T20:47:07.080Z,3.60
2023-02-06T20:50:32.409Z,3.40
2023-02-06T20:53:45.087Z,3.90
2023-02-06T20:57:09.152Z,3.35
2023-02-06T21:00:09.679Z,3.03
2023-02-06T21:03:22.157Z,3.45
2023-02-06T21:06:23.185Z,3.70
2023-02-06T21:09:48.150Z,3.50
2023-02-06T21:12:48.195Z,2.93
2023-02-06T21:16:16.234Z,3.55
2023-02-06T21:19:28.202Z,3.40
2023-02-06T21:22:40.300Z,3.70
2023-02-06T21:25:54.187Z,3.40
2023-02-06T21:29:19.289Z,3.50
2023-02-06T21:32:19.310Z,3.87
2023-02-06T21:35:31.352Z,3.10
2023-02-06T21:38:31.242Z,3.50
2023-02-06T21:41:57.307Z,3.30
2023-02-06T21:44:57.259Z,3.80
2023-02-06T21:48:09.352Z,3.60
2023-02-06T21:51:21.313Z,4.90
2023-02-06T21:54:33.372Z,3.97
2023-02-06T21:57:47.337Z,3.30
2023-02-06T22:01:11.344Z,3.33
2023-02-06T22:04:35.346Z,4.65
2023-02-06T22:07:24.380Z,3.95
2023-02-06T22:10:49.413Z,3.60
2023-02-06T22:14:03.465Z,4.47
2023-02-06T22:17:15.421Z,3.70
2023-02-06T22:20:16.409Z,3.40
2023-02-06T22:23:27.463Z,4.30
2023-02-06T22:26:39.440Z,3.90
2023-02-06T22:30:06.442Z,4.00
2023-02-06T22:33:06.411Z,4.03
2023-02-06T22:36:31.482Z,4.10
2023-02-06T22:39:43.496Z,4.00
2023-02-06T22:42:57.455Z,3.50
2023-02-06T22:46:11.502Z,3.70
2023-02-06T22:49:37.502Z,3.77
2023-02-06T22:52:45.722Z,4.60
2023-02-06T22:56:01.386Z,3.80
2023-02-06T22:59:16.546Z,4.33
2023-02-06T23:02:42.528Z,4.33
2023-02-06T23:05:42.498Z,4.00
2023-02-06T23:09:06.594Z,4.20
2023-02-06T23:12:19.541Z,4.40
2023-02-06T23:15:32.563Z,4.37
2023-02-06T23:18:46.632Z,3.97
2023-02-06T23:22:11.610Z,4.80
2023-02-06T23:25:12.656Z,4.33
2023-02-06T23:28:24.579Z,4.75
2023-02-06T23:31:36.633Z,3.80
2023-02-06T23:35:02.688Z,4.30
2023-02-06T23:38:02.673Z,4.73
2023-02-06T23:41:31.624Z,4.55
2023-02-06T23:44:43.659Z,4.47
2023-02-06T23:47:55.704Z,4.60
2023-02-06T23:51:09.804Z,4.40
2023-02-06T23:54:33.717Z,4.20
2023-02-06T23:57:33.726Z,5.00
